createdAt,value
2019-05-21T00:00:46.276Z,23.63
2019-05-21T00:03:16.961Z,21.17
2019-05-21T00:05:51.200Z,21.67
2019-05-21T00:08:21.924Z,23.17
2019-05-21T00:10:53.206Z,21.77
2019-05-21T00:13:24.262Z,19.90
2019-05-21T00:15:55.224Z,19.83
2019-05-21T00:18:25.910Z,19.67
2019-05-21T00:20:58.128Z,23.57
2019-05-21T00:23:28.974Z,21.27
2019-05-21T00:25:59.910Z,22.97
2019-05-21T00:28:38.734Z,20.23
2019-05-21T00:31:45.667Z,20.40
2019-05-21T00:34:52.109Z,21.17
2019-05-21T00:37:57.992Z,22.80
2019-05-21T00:41:04.097Z,21.07
2019-05-21T00:43:58.689Z,20.03
2019-05-21T00:46:32.748Z,20.40
2019-05-21T00:49:03.406Z,20.73
2019-05-21T00:51:34.251Z,20.27
2019-05-21T00:54:05.371Z,21.17
2019-05-21T00:56:38.753Z,20.83
2019-05-21T00:59:09.648Z,20.20
2019-05-21T01:01:41.900Z,22.43
2019-05-21T01:04:13.200Z,23.67
2019-05-21T01:06:44.303Z,23.40
2019-05-21T01:09:15.363Z,22.43
2019-05-21T01:11:46.178Z,24.23
2019-05-21T01:14:17.286Z,24.27
2019-05-21T01:16:48.130Z,22.83
2019-05-21T01:19:20.761Z,26.63
2019-05-21T01:21:51.624Z,22.00
2019-05-21T01:24:23.579Z,23.33
2019-05-21T01:26:56.716Z,25.27
2019-05-21T01:29:27.901Z,23.27
2019-05-21T01:32:02.484Z,23.73
2019-05-21T01:34:33.846Z,25.20
2019-05-21T01:37:04.984Z,25.33
2019-05-21T01:39:35.783Z,25.23
2019-05-21T01:42:06.869Z,23.53
2019-05-21T01:44:37.145Z,24.00
2019-05-21T01:47:08.626Z,23.63
2019-05-21T01:49:39.779Z,25.93
2019-05-21T01:52:10.612Z,23.57
2019-05-21T01:54:41.599Z,24.07
2019-05-21T01:57:15.075Z,22.47
2019-05-21T01:59:46.072Z,24.93
2019-05-21T02:05:07.280Z,25.03
2019-05-21T02:07:38.460Z,27.87
2019-05-21T02:10:10.253Z,28.47
2019-05-21T02:12:41.220Z,26.00
2019-05-21T02:15:15.469Z,26.47
2019-05-21T02:17:49.261Z,24.43
2019-05-21T02:20:20.402Z,24.30
2019-05-21T02:22:51.237Z,26.70
2019-05-21T02:25:22.075Z,24.00
2019-05-21T02:27:55.108Z,23.47
2019-05-21T02:33:00.035Z,23.13
2019-05-21T02:35:31.610Z,22.57
2019-05-21T02:38:06.968Z,23.43
2019-05-21T02:40:38.685Z,23.23
2019-05-21T02:43:12.254Z,21.93
2019-05-21T02:45:44.938Z,22.43
2019-05-21T02:48:21.018Z,24.07
2019-05-21T02:50:52.426Z,23.77
2019-05-21T02:53:28.642Z,21.80
2019-05-21T02:55:59.845Z,23.37
2019-05-21T02:58:32.953Z,24.17
2019-05-21T03:01:28.903Z,23.83
2019-05-21T03:04:07.027Z,22.03
2019-05-21T03:06:38.305Z,22.40
2019-05-21T03:09:13.637Z,21.00
2019-05-21T03:11:45.689Z,21.70
2019-05-21T03:14:35.739Z,21.23
2019-05-21T03:17:07.264Z,21.30
2019-05-21T03:19:42.461Z,22.13
2019-05-21T03:22:16.425Z,28.70
2019-05-21T03:24:51.190Z,21.20
2019-05-21T03:27:23.846Z,22.07
2019-05-21T03:29:56.523Z,22.30
2019-05-21T03:32:41.857Z,23.40
2019-05-21T03:35:17.612Z,26.23
2019-05-21T03:37:49.050Z,23.77
2019-05-21T03:40:26.909Z,23.17
2019-05-21T03:43:13.240Z,21.73
2019-05-21T03:45:46.547Z,31.30
2019-05-21T03:48:22.725Z,22.37
2019-05-21T03:50:54.441Z,22.37
2019-05-21T03:53:25.758Z,27.53
2019-05-21T03:55:58.796Z,22.93
2019-05-21T03:58:32.471Z,25.73
2019-05-21T04:01:07.360Z,23.53
2019-05-21T04:03:40.359Z,22.27
2019-05-21T04:06:13.674Z,29.00
2019-05-21T04:08:47.287Z,21.73
2019-05-21T04:11:21.197Z,20.60
2019-05-21T04:13:52.651Z,18.63
2019-05-21T04:16:32.937Z,21.50
2019-05-21T04:19:13.342Z,18.40
2019-05-21T04:21:46.487Z,19.50
2019-05-21T04:24:17.727Z,20.17
2019-05-21T04:27:00.961Z,19.60
2019-05-21T04:33:31.652Z,19.07
2019-05-21T04:36:05.658Z,19.00
2019-05-21T04:38:38.428Z,18.27
2019-05-21T04:41:09.161Z,17.80
2019-05-21T04:44:26.769Z,18.50
2019-05-21T04:54:36.949Z,17.03
2019-05-21T04:57:08.431Z,17.47
2019-05-21T04:59:39.600Z,16.63
2019-05-21T05:02:14.781Z,17.27
2019-05-21T05:04:46.504Z,17.63
2019-05-21T05:07:43.355Z,16.30
2019-05-21T05:10:24.772Z,16.97
2019-05-21T05:13:11.536Z,16.47
2019-05-21T05:15:46.674Z,16.47
2019-05-21T05:18:55.264Z,15.60
2019-05-21T05:21:26.831Z,15.93
2019-05-21T05:24:20.428Z,15.63
2019-05-21T05:30:43.217Z,15.77
2019-05-21T05:33:17.120Z,16.10
2019-05-21T05:35:56.424Z,14.43
2019-05-21T05:41:43.400Z,15.60
2019-05-21T05:44:42.942Z,15.97
2019-05-21T05:47:33.146Z,15.73
2019-05-21T05:50:13.789Z,15.40
2019-05-21T05:52:47.410Z,15.53
2019-05-21T05:55:45.365Z,15.43
2019-05-21T05:58:28.377Z,15.77
2019-05-21T06:01:39.211Z,14.30
2019-05-21T06:04:30.264Z,14.80
2019-05-21T06:06:55.470Z,14.33
2019-05-21T06:12:40.791Z,14.63
2019-05-21T06:15:16.547Z,14.83
2019-05-21T06:17:50.243Z,14.50
2019-05-21T06:20:28.041Z,14.40
2019-05-21T06:23:06.115Z,14.20
2019-05-21T06:25:38.889Z,13.20
2019-05-21T06:28:19.230Z,12.87
2019-05-21T06:31:01.356Z,13.30
2019-05-21T06:33:34.844Z,13.60
2019-05-21T06:36:59.321Z,12.97
2019-05-21T06:39:38.415Z,14.17
2019-05-21T06:42:33.164Z,13.17
2019-05-21T06:45:14.043Z,12.23
2019-05-21T06:48:18.649Z,14.37
2019-05-21T06:54:44.770Z,13.43
2019-05-21T06:58:35.973Z,14.23
2019-05-21T07:01:50.180Z,13.27
2019-05-21T07:04:29.599Z,13.23
2019-05-21T07:07:05.238Z,13.73
2019-05-21T07:09:45.751Z,14.00
2019-05-21T07:12:28.495Z,12.80
2019-05-21T07:15:08.749Z,12.63
2019-05-21T07:17:45.690Z,12.30
2019-05-21T07:20:22.214Z,12.83
2019-05-21T07:22:55.237Z,13.27
2019-05-21T07:25:46.292Z,12.37
2019-05-21T07:28:17.711Z,11.77
2019-05-21T07:30:59.450Z,12.10
2019-05-21T07:33:31.025Z,11.37
2019-05-21T07:36:13.475Z,11.00
2019-05-21T07:38:53.080Z,11.20
2019-05-21T07:41:20.471Z,10.63
2019-05-21T07:43:52.348Z,10.53
2019-05-21T07:46:23.317Z,10.53
2019-05-21T07:48:59.248Z,9.27
2019-05-21T07:51:39.414Z,9.77
2019-05-21T07:54:21.855Z,9.97
2019-05-21T07:57:00.840Z,11.40
2019-05-21T07:59:35.726Z,8.87
2019-05-21T08:02:10.107Z,9.47
2019-05-21T08:04:47.724Z,9.60
2019-05-21T08:07:21.834Z,8.90
2019-05-21T08:09:52.857Z,9.47
2019-05-21T08:12:38.208Z,10.50
2019-05-21T08:14:59.478Z,11.20
2019-05-21T08:17:33.493Z,9.90
2019-05-21T08:20:09.778Z,11.60
2019-05-21T08:22:39.719Z,11.60
2019-05-21T08:25:14.800Z,10.90
2019-05-21T08:27:45.518Z,10.17
2019-05-21T08:30:22.097Z,10.47
2019-05-21T08:32:52.823Z,10.83
2019-05-21T08:35:23.561Z,10.30
2019-05-21T08:37:57.060Z,9.70
2019-05-21T08:40:27.770Z,9.83
2019-05-21T08:42:58.553Z,9.50
2019-05-21T08:45:29.564Z,9.50
2019-05-21T08:48:02.422Z,10.50
2019-05-21T08:50:38.495Z,9.93
2019-05-21T08:53:09.577Z,9.27
2019-05-21T08:55:40.729Z,10.27
2019-05-21T08:58:11.408Z,9.27
2019-05-21T09:00:41.990Z,8.90
2019-05-21T09:03:13.464Z,8.20
2019-05-21T09:05:44.057Z,8.17
2019-05-21T09:08:14.927Z,7.33
2019-05-21T09:10:45.716Z,8.37
2019-05-21T09:13:17.962Z,7.20
2019-05-21T09:15:49.029Z,7.27
2019-05-21T09:18:22.330Z,7.50
2019-05-21T09:20:53.141Z,6.83
2019-05-21T09:23:24.255Z,6.77
2019-05-21T09:25:55.719Z,6.60
2019-05-21T09:28:26.557Z,7.90
2019-05-21T09:31:01.419Z,8.53
2019-05-21T09:33:33.808Z,9.10
2019-05-21T09:36:05.861Z,7.70
2019-05-21T09:38:36.699Z,7.30
2019-05-21T09:41:07.514Z,7.47
2019-05-21T09:43:38.568Z,7.80
2019-05-21T09:46:10.730Z,10.13
2019-05-21T09:48:42.679Z,9.50
2019-05-21T09:51:19.778Z,8.60
2019-05-21T09:53:47.785Z,8.10
2019-05-21T09:56:35.500Z,10.93
2019-05-21T09:59:33.050Z,7.60
2019-05-21T10:02:10.687Z,9.00
2019-05-21T10:04:42.327Z,9.17
2019-05-21T10:07:13.506Z,11.83
2019-05-21T10:09:44.383Z,11.90
2019-05-21T10:12:15.163Z,13.20
2019-05-21T10:14:45.990Z,10.03
2019-05-21T10:17:16.587Z,9.50
2019-05-21T10:19:47.025Z,9.93
2019-05-21T10:22:17.488Z,9.00
2019-05-21T10:24:48.325Z,10.53
2019-05-21T10:27:18.932Z,9.33
2019-05-21T10:29:49.364Z,9.50
2019-05-21T10:32:19.970Z,8.77
2019-05-21T10:34:50.470Z,9.70
2019-05-21T10:37:21.029Z,8.97
2019-05-21T10:39:51.873Z,8.90
2019-05-21T10:42:22.678Z,9.20
2019-05-21T10:44:53.165Z,9.97
2019-05-21T10:47:23.934Z,8.57
2019-05-21T10:49:54.496Z,11.17
2019-05-21T10:52:25.355Z,9.13
2019-05-21T10:54:56.814Z,10.20
2019-05-21T10:57:37.873Z,10.67
2019-05-21T11:00:13.339Z,7.77
2019-05-21T11:03:01.456Z,7.03
2019-05-21T11:05:36.350Z,8.53
2019-05-21T11:08:23.493Z,7.73
2019-05-21T11:10:42.882Z,7.50
2019-05-21T11:13:13.819Z,7.50
2019-05-21T11:15:44.555Z,7.70
2019-05-21T11:18:16.790Z,8.47
2019-05-21T11:20:47.507Z,7.37
2019-05-21T11:23:18.438Z,6.30
2019-05-21T11:25:49.143Z,5.87
2019-05-21T11:28:20.939Z,7.70
2019-05-21T11:30:52.928Z,7.27
2019-05-21T11:33:24.579Z,5.87
2019-05-21T11:35:55.234Z,6.50
2019-05-21T11:38:39.560Z,7.57
2019-05-21T11:40:59.759Z,5.67
2019-05-21T11:43:30.380Z,5.50
2019-05-21T11:46:04.799Z,6.37
2019-05-21T11:48:35.473Z,5.57
2019-05-21T11:51:12.618Z,7.63
2019-05-21T11:53:42.629Z,5.77
2019-05-21T11:56:13.324Z,6.00
2019-05-21T11:58:44.044Z,5.60
2019-05-21T12:01:14.774Z,5.53
2019-05-21T12:03:45.574Z,7.73
2019-05-21T12:06:16.346Z,6.23
2019-05-21T12:08:56.278Z,6.50
2019-05-21T12:11:19.376Z,5.70
2019-05-21T12:13:50.055Z,8.00
2019-05-21T12:16:20.612Z,6.10
2019-05-21T12:18:51.498Z,6.90
2019-05-21T12:21:24.064Z,7.50
2019-05-21T12:23:55.125Z,8.37
2019-05-21T12:26:25.897Z,7.27
2019-05-21T12:28:56.547Z,6.23
2019-05-21T12:33:56.650Z,5.40
2019-05-21T12:36:27.497Z,5.63
2019-05-21T12:39:13.182Z,6.67
2019-05-21T12:41:30.987Z,4.47
2019-05-21T12:44:01.477Z,3.80
2019-05-21T12:46:32.186Z,5.27
2019-05-21T12:49:02.709Z,3.30
2019-05-21T12:51:33.418Z,4.70
2019-05-21T12:54:05.171Z,4.77
2019-05-21T12:56:35.869Z,5.17
2019-05-21T12:59:06.456Z,3.77
2019-05-21T13:01:37.209Z,3.80
2019-05-21T13:04:07.810Z,4.83
2019-05-21T13:06:38.288Z,5.33
2019-05-21T13:09:09.414Z,3.57
2019-05-21T13:11:40.346Z,4.37
2019-05-21T13:14:14.884Z,3.47
2019-05-21T13:16:43.141Z,3.57
2019-05-21T13:19:15.637Z,4.80
2019-05-21T13:21:46.264Z,5.07
2019-05-21T13:24:16.756Z,3.90
2019-05-21T13:26:47.636Z,4.57
2019-05-21T13:29:18.022Z,3.97
2019-05-21T13:31:48.817Z,3.33
2019-05-21T13:34:19.255Z,6.50
2019-05-21T13:36:50.068Z,8.33
2019-05-21T13:39:25.349Z,9.00
2019-05-21T13:41:54.077Z,4.57
2019-05-21T13:44:24.560Z,6.03
2019-05-21T13:46:59.424Z,5.43
2019-05-21T13:49:29.940Z,4.90
2019-05-21T13:52:00.857Z,5.03
2019-05-21T13:54:32.154Z,5.17
2019-05-21T13:57:02.981Z,6.27
2019-05-21T13:59:33.809Z,5.13
2019-05-21T14:02:06.089Z,4.93
2019-05-21T14:04:37.056Z,4.57
2019-05-21T14:07:09.460Z,3.43
2019-05-21T14:09:40.002Z,4.47
2019-05-21T14:14:42.860Z,4.20
2019-05-21T14:17:14.867Z,4.13
2019-05-21T14:19:45.736Z,3.33
2019-05-21T14:22:16.188Z,4.13
2019-05-21T14:24:47.091Z,4.67
2019-05-21T14:27:18.621Z,7.37
2019-05-21T14:29:49.632Z,6.20
2019-05-21T14:32:20.297Z,5.87
2019-05-21T14:35:00.754Z,5.30
2019-05-21T14:37:22.845Z,5.07
2019-05-21T14:39:53.773Z,5.00
2019-05-21T14:42:24.904Z,2.97
2019-05-21T14:44:55.917Z,2.80
2019-05-21T14:47:29.379Z,2.30
2019-05-21T14:50:00.457Z,2.03
2019-05-21T14:52:32.213Z,2.80
2019-05-21T14:55:04.296Z,3.73
2019-05-21T14:57:34.895Z,3.50
2019-05-21T15:02:42.237Z,4.00
2019-05-21T15:05:13.073Z,4.00
2019-05-21T15:07:43.547Z,6.20
2019-05-21T15:10:14.075Z,1.80
2019-05-21T15:12:44.686Z,2.80
2019-05-21T15:15:15.470Z,2.27
2019-05-21T15:17:46.196Z,1.90
2019-05-21T15:20:45.415Z,2.27
2019-05-21T15:23:16.101Z,2.30
2019-05-21T15:25:47.087Z,2.33
2019-05-21T15:28:17.808Z,2.63
2019-05-21T15:30:48.137Z,2.17
2019-05-21T15:33:19.735Z,5.17
2019-05-21T15:35:50.329Z,2.10
2019-05-21T15:38:21.076Z,4.03
2019-05-21T15:41:08.369Z,3.33
2019-05-21T15:43:26.288Z,3.23
2019-05-21T15:45:59.461Z,3.53
2019-05-21T15:48:33.033Z,5.63
2019-05-21T15:51:03.648Z,7.50
2019-05-21T15:53:35.334Z,5.37
2019-05-21T15:56:07.333Z,6.47
2019-05-21T15:58:41.566Z,8.83
2019-05-21T16:01:14.434Z,6.60
2019-05-21T16:03:45.410Z,10.63
2019-05-21T16:06:15.954Z,14.37
2019-05-21T16:08:47.048Z,10.90
2019-05-21T16:11:28.244Z,11.17
2019-05-21T16:13:50.477Z,11.67
2019-05-21T16:16:21.142Z,9.10
2019-05-21T16:18:51.865Z,7.93
2019-05-21T16:21:22.590Z,9.37
2019-05-21T16:23:53.471Z,8.07
2019-05-21T16:26:24.511Z,8.97
2019-05-21T16:28:55.454Z,8.80
2019-05-21T16:31:26.015Z,9.43
2019-05-21T16:33:56.878Z,10.33
2019-05-21T16:36:27.419Z,11.23
2019-05-21T16:38:58.064Z,8.27
2019-05-21T16:41:41.847Z,8.73
2019-05-21T16:44:01.838Z,12.20
2019-05-21T16:46:32.752Z,6.87
2019-05-21T16:49:07.104Z,12.17
2019-05-21T16:51:43.314Z,9.07
2019-05-21T16:54:21.369Z,7.17
2019-05-21T16:56:53.816Z,6.90
2019-05-21T16:59:24.815Z,6.70
2019-05-21T17:02:02.326Z,6.13
2019-05-21T17:04:44.376Z,6.17
2019-05-21T17:07:23.354Z,4.57
2019-05-21T17:09:54.218Z,14.60
2019-05-21T17:12:30.788Z,9.03
2019-05-21T17:15:16.821Z,8.93
2019-05-21T17:17:48.896Z,7.90
2019-05-21T17:23:13.550Z,7.33
2019-05-21T17:25:45.215Z,8.03
2019-05-21T17:28:15.771Z,8.23
2019-05-21T17:30:46.887Z,8.80
2019-05-21T17:33:18.683Z,8.63
2019-05-21T17:35:51.808Z,9.23
2019-05-21T17:38:24.470Z,11.27
2019-05-21T17:40:54.847Z,10.50
2019-05-21T17:43:26.149Z,11.37
2019-05-21T17:45:57.072Z,10.07
2019-05-21T17:48:27.768Z,9.83
2019-05-21T17:50:59.256Z,14.03
2019-05-21T17:53:29.910Z,10.00
2019-05-21T17:56:01.053Z,11.73
2019-05-21T17:58:32.687Z,17.30
2019-05-21T18:01:05.868Z,15.13
2019-05-21T18:03:37.091Z,10.47
2019-05-21T18:06:08.365Z,12.50
2019-05-21T18:08:39.187Z,16.53
2019-05-21T18:11:11.536Z,14.43
2019-05-21T18:13:42.595Z,14.00
2019-05-21T18:16:14.260Z,14.03
2019-05-21T18:18:44.907Z,14.63
2019-05-21T18:21:16.617Z,11.33
2019-05-21T18:23:47.352Z,11.83
2019-05-21T18:26:18.152Z,11.90
2019-05-21T18:28:48.764Z,13.55
2019-05-21T18:31:19.693Z,12.40
2019-05-21T18:33:50.144Z,13.03
2019-05-21T18:36:20.804Z,14.40
2019-05-21T18:38:51.332Z,14.87
2019-05-21T18:41:23.610Z,14.87
2019-05-21T18:43:54.295Z,18.83
2019-05-21T18:46:25.434Z,16.80
2019-05-21T18:48:56.104Z,19.97
2019-05-21T18:51:26.965Z,13.33
2019-05-21T18:53:57.616Z,14.93
2019-05-21T18:56:28.175Z,12.50
2019-05-21T18:58:58.836Z,13.97
2019-05-21T19:01:29.835Z,14.10
2019-05-21T19:04:00.524Z,16.30
2019-05-21T19:06:31.420Z,20.53
2019-05-21T19:09:02.487Z,14.70
2019-05-21T19:11:34.155Z,16.50
2019-05-21T19:14:05.139Z,25.43
2019-05-21T19:16:36.053Z,17.93
2019-05-21T19:19:10.689Z,17.70
2019-05-21T19:21:43.384Z,14.97
2019-05-21T19:24:14.269Z,23.90
2019-05-21T19:26:44.825Z,62.77
2019-05-21T19:29:15.519Z,19.47
2019-05-21T19:31:49.202Z,18.13
2019-05-21T19:34:18.640Z,16.73
2019-05-21T19:36:49.832Z,19.47
2019-05-21T19:39:20.526Z,28.53
2019-05-21T19:41:51.263Z,33.47
2019-05-21T19:44:21.981Z,16.90
2019-05-21T19:46:52.824Z,23.90
2019-05-21T19:49:23.503Z,22.43
2019-05-21T19:51:54.416Z,15.87
2019-05-21T19:54:25.051Z,20.10
2019-05-21T19:56:55.940Z,39.83
2019-05-21T19:59:27.505Z,22.10
2019-05-21T20:01:58.556Z,20.30
2019-05-21T20:04:29.996Z,28.27
2019-05-21T20:07:01.284Z,17.43
2019-05-21T20:09:33.144Z,18.20
2019-05-21T20:12:04.713Z,17.50
2019-05-21T20:14:35.612Z,64.23
2019-05-21T20:17:08.420Z,18.63
2019-05-21T20:19:42.688Z,19.87
2019-05-21T20:22:13.855Z,21.73
2019-05-21T20:24:44.790Z,21.57
2019-05-21T20:27:16.068Z,48.67
2019-05-21T20:29:47.250Z,31.57
2019-05-21T20:32:20.093Z,67.78
2019-05-21T20:34:51.502Z,93.00
2019-05-21T20:37:26.468Z,31.03
2019-05-21T20:39:58.009Z,20.77
2019-05-21T20:42:30.971Z,73.63
2019-05-21T20:45:03.010Z,54.40
2019-05-21T20:47:34.537Z,48.03
2019-05-21T20:50:11.778Z,29.43
2019-05-21T20:52:43.733Z,36.70
2019-05-21T20:55:16.102Z,24.83
2019-05-21T20:57:47.172Z,22.83
2019-05-21T21:00:23.027Z,22.00
2019-05-21T21:02:53.979Z,42.57
2019-05-21T21:05:25.031Z,31.77
2019-05-21T21:07:55.968Z,36.53
2019-05-21T21:10:28.905Z,57.43
2019-05-21T21:13:00.132Z,61.90
2019-05-21T21:15:31.805Z,34.13
2019-05-21T21:18:03.301Z,57.27
2019-05-21T21:20:37.015Z,52.53
2019-05-21T21:23:07.741Z,41.80
2019-05-21T21:25:38.787Z,36.33
2019-05-21T21:28:09.577Z,28.03
2019-05-21T21:30:40.511Z,49.13
2019-05-21T21:33:12.678Z,27.57
2019-05-21T21:35:43.866Z,71.13
2019-05-21T21:38:17.443Z,82.93
2019-05-21T21:40:48.895Z,24.20
2019-05-21T21:43:19.816Z,20.80
2019-05-21T21:45:50.480Z,27.57
2019-05-21T21:48:21.695Z,21.50
2019-05-21T21:50:52.568Z,26.27
2019-05-21T21:53:24.448Z,29.77
2019-05-21T21:55:54.977Z,76.17
2019-05-21T21:58:25.799Z,33.87
2019-05-21T22:01:31.431Z,31.50
2019-05-21T22:04:05.472Z,29.40
2019-05-21T22:06:39.412Z,23.40
2019-05-21T22:09:19.330Z,23.43
2019-05-21T22:11:50.164Z,28.57
2019-05-21T22:14:21.484Z,26.60
2019-05-21T22:16:56.042Z,52.70
2019-05-21T22:19:28.188Z,28.40
2019-05-21T22:21:59.627Z,55.20
2019-05-21T22:24:31.117Z,67.63
2019-05-21T22:27:02.180Z,27.77
2019-05-21T22:29:33.102Z,31.67
2019-05-21T22:32:03.760Z,40.37
2019-05-21T22:34:35.045Z,38.67
2019-05-21T22:37:08.141Z,48.93
2019-05-21T22:39:43.079Z,55.00
2019-05-21T22:42:15.993Z,54.53
2019-05-21T22:45:06.754Z,60.40
2019-05-21T22:47:24.139Z,47.57
2019-05-21T22:49:55.447Z,55.50
2019-05-21T22:52:28.060Z,55.50
2019-05-21T22:54:59.324Z,61.13
2019-05-21T22:57:30.906Z,72.35
2019-05-21T23:00:02.575Z,65.50
2019-05-21T23:02:37.235Z,107.57
2019-05-21T23:05:10.408Z,137.70
2019-05-21T23:07:42.870Z,102.40
2019-05-21T23:10:14.321Z,45.83
2019-05-21T23:12:45.180Z,46.07
2019-05-21T23:15:24.874Z,39.90
2019-05-21T23:18:06.596Z,55.10
2019-05-21T23:20:42.013Z,54.63
2019-05-21T23:23:13.449Z,208.10
2019-05-21T23:25:46.364Z,134.20
2019-05-21T23:28:17.932Z,41.67
2019-05-21T23:30:49.618Z,54.07
2019-05-21T23:33:23.886Z,59.50
2019-05-21T23:35:55.185Z,46.50
2019-05-21T23:38:26.393Z,55.17
2019-05-21T23:40:58.441Z,49.50
2019-05-21T23:43:30.077Z,50.57
2019-05-21T23:46:01.096Z,53.23
2019-05-21T23:48:32.308Z,60.47
2019-05-21T23:51:02.971Z,61.03
2019-05-21T23:53:33.697Z,56.87
2019-05-21T23:56:06.785Z,43.07
2019-05-21T23:58:37.820Z,49.13
